Have a Safe July 4th! 

Flight Track Log - Related Links

Times and Time Zones

All times are in EDT time to prevent confusion due to time zone crossing. See the PN6226 flight status page for this flight to view local times or setup timezone preferences in your user account.

Time Position Orientation Groundspeed Altitude Reporting Facility
EDT Latitude Longitude Course Direction KTS MPH feet Rate Location/Type
Fri 02:14:00 AM 32.4855 104.0472 140° Southeast  Level Estimated
Fri 02:15:00 AM 32.4390 104.0925 141° Southeast  Level Estimated
Fri 02:16:00 AM 32.3925 104.1378 141° Southeast  Level Estimated
Fri 02:17:00 AM 32.3460 104.1830 141° Southeast  Level Estimated
Fri 02:18:00 AM 32.2994 104.2282 141° Southeast  Level Estimated
Fri 02:19:00 AM 32.2529 104.2733 141° Southeast  Level Estimated
Fri 02:20:00 AM 32.2063 104.3184 141° Southeast  Level Estimated
Fri 02:21:00 AM 32.1597 104.3635 141° Southeast  Level Estimated
Fri 02:22:00 AM 32.1131 104.4084 141° Southeast  Level Estimated
Fri 02:23:00 AM 32.0664 104.4534 141° Southeast  Level Estimated
Fri 02:24:00 AM 32.0198 104.4983 141° Southeast  Level Estimated
Fri 02:25:00 AM 31.9731 104.5431 141° Southeast  Level Estimated
Fri 02:26:00 AM 31.9264 104.5880 141° Southeast  Level Estimated
Fri 02:27:00 AM 31.8797 104.6327 141° Southeast  Level Estimated
Fri 02:28:00 AM 31.8330 104.6774 141° Southeast  Level Estimated
Fri 02:29:00 AM 31.7863 104.7221 141° Southeast  Level Estimated
Fri 02:30:00 AM 31.7396 104.7667 141° Southeast  Level Estimated
Fri 02:31:00 AM 31.6928 104.8113 141° Southeast  Level Estimated
Fri 02:32:00 AM 31.6460 104.8559 141° Southeast  Level Estimated
Fri 02:33:00 AM 31.5992 104.9003 141° Southeast  Level Estimated
Fri 02:34:00 AM 31.5524 104.9448 141° Southeast  Level Estimated
Fri 02:35:00 AM 31.5056 104.9892 141° Southeast  Level Estimated
Fri 02:36:00 AM 31.4588 105.0335 141° Southeast  Level Estimated
Fri 02:37:00 AM 31.4119 105.0779 141° Southeast  Level Estimated
Fri 02:38:00 AM 31.3651 105.1221 141° Southeast  Level Estimated
Fri 02:39:00 AM 31.3182 105.1664 141° Southeast  Level Estimated
Fri 02:40:00 AM 31.2713 105.2105 141° Southeast  Level Estimated
Fri 02:41:00 AM 31.2244 105.2547 141° Southeast  Level Estimated
Fri 02:42:00 AM 31.1774 105.2988 141° Southeast  Level Estimated
Fri 02:43:00 AM 31.1305 105.3428 141° Southeast  Level Estimated
Fri 02:44:00 AM 31.0835 105.3868 141° Southeast  Level Estimated
Fri 02:45:00 AM 31.0366 105.4308 141° Southeast  Level Estimated
Fri 02:46:00 AM 30.9896 105.4747 141° Southeast  Level Estimated
Fri 02:47:00 AM 30.9426 105.5186 141° Southeast  Level Estimated
Fri 02:48:00 AM 30.8956 105.5624 141° Southeast  Level Estimated
Fri 02:49:00 AM 30.8485 105.6062 141° Southeast  Level Estimated
Fri 02:50:00 AM 30.8015 105.6500 141° Southeast  Level Estimated
Fri 02:51:00 AM 30.7544 105.6937 141° Southeast  Level Estimated
Fri 02:52:00 AM 30.7073 105.7373 141° Southeast  Level Estimated
Fri 02:53:00 AM 30.6603 105.7809 141° Southeast  Level Estimated
Fri 02:54:00 AM 30.6132 105.8245 141° Southeast  Level Estimated
Fri 02:55:00 AM 30.5660 105.8680 141° Southeast  Level Estimated
Fri 02:56:00 AM 30.5189 105.9115 142° Southeast  Level Estimated
Fri 02:57:00 AM 30.4718 105.9550 142° Southeast  Level Estimated
Fri 02:58:00 AM 30.4246 105.9984 142° Southeast  Level Estimated
Fri 02:59:00 AM 30.3774 106.0418 142° Southeast  Level Estimated
Fri 03:00:00 AM 30.3302 106.0851 142° Southeast  Level Estimated
Fri 03:01:00 AM 30.2830 106.1284 142° Southeast  Level Estimated
Fri 03:02:00 AM 30.2358 106.1716 142° Southeast  Level Estimated
Fri 03:03:00 AM 30.1886 106.2148 142° Southeast  Level Estimated
Fri 03:04:00 AM 30.1413 106.2580 142° Southeast  Level Estimated
Fri 03:05:00 AM 30.0941 106.3011 142° Southeast  Level Estimated
Fri 03:06:00 AM 30.0468 106.3442 142° Southeast  Level Estimated
Fri 03:07:00 AM 29.9995 106.3872 142° Southeast  Level Estimated
Fri 03:08:00 AM 29.9522 106.4302 142° Southeast  Level Estimated
Fri 03:09:00 AM 29.9049 106.4731 142° Southeast  Level Estimated
Fri 03:10:00 AM 29.8575 106.5160 142° Southeast  Level Estimated
Fri 03:11:00 AM 29.8102 106.5589 142° Southeast  Level Estimated
Fri 03:12:00 AM 29.7628 106.6017 142° Southeast  Level Estimated
Fri 03:13:00 AM 29.7194 106.6410 142° Southeast  Level Estimated
Fri 03:14:00 AM 29.7194 106.6410 60° Northeast  Level Estimated
Fri 03:15:00 AM 29.7194 106.6410 60° Northeast  Level Estimated
Fri 03:16:00 AM 29.7194 106.6410 60° Northeast  Level Estimated

Login

Don't have an account? Register now (free) for customized features, flight alerts, and more!